Kidsgrove, United Kingdom
Current Conditions -  °F | °C
As of 12:50 AM on Thursday 23 Oct 2014 (Local Time) from EGCC Reporting Station
Broken Clouds Broken Clouds  
Wind Chill: 52°   Ceiling: 3100
Heat Index: 52°   Visibility: 6mi
Dew Point: 48°   Wind: 8mph
Humidity: 88%   Direction: 190°S
Pressure: 30.09"   Gusts: NA
Location:  53.09°N, 2.24°W
Report Text: EGCC 222350Z 19007KT 9999 BKN031 11/09 Q1019 NOSIG
Loading
Personal Weather Stations






























Interactive Weather Map
Tropical Storm Tracking
New forecast layout! Learn more

10-Day Weather Forecast

Advertisements
Track Severe Weather on mobile